Date,TemperatureHighF,TemperatureAvgF,TemperatureLowF,DewpointHighF,DewpointAvgF,DewpointLowF,HumidityHigh,HumidityAvg,HumidityLow,PressureMaxIn,PressureMinIn,WindSpeedMaxMPH,WindSpeedAvgMPH,GustSpeedMaxMPH,PrecipitationSumIn
2014-1-1,42,31,23,31,22,15,100,75,41,0.00,40.00,8,2,12,0.00
2014-1-2,38,33,28,36,32,27,100,98,89,0.00,40.00,5,1,15,0.00
2014-1-3,25,18,13,24,9,-3,100,74,47,0.00,40.00,13,7,28,0.00
2014-1-4,33,19,1,29,7,-100,93,70,41,0.00,40.00,9,3,16,0.00
2014-1-5,53,40,26,53,38,26,100,90,70,0.00,40.00,10,3,20,0.00
2014-1-6,55,43,19,55,37,-3,100,82,39,0.00,40.00,22,10,35,0.00
2014-1-7,15,10,6,-4,-9,-13,48,44,40,0.00,40.00,24,15,41,0.00
2014-1-8,25,17,10,13,0,-6,82,52,35,0.00,40.00,8,3,19,0.00
2014-1-9,31,25,19,22,16,14,86,73,49,0.00,40.00,4,1,9,0.00
2014-1-10,47,36,26,47,35,21,100,96,85,0.00,40.00,4,1,9,0.38
2014-1-11,59,54,46,58,52,-100,100,98,98,0.00,40.00,18,9,31,0.17
2014-1-12,48,42,31,47,34,30,100,76,53,0.00,40.00,13,6,25,0.00
2014-1-13,47,37,28,41,33,27,100,88,71,0.00,40.00,9,3,14,0.00
2014-1-14,49,46,41,49,45,41,100,94,77,0.00,40.00,7,3,16,0.61
2014-1-15,49,42,36,46,41,36,100,97,88,0.00,40.00,6,3,10,0.01
2014-1-16,38,36,35,33,30,28,82,77,75,0.00,40.00,6,4,15,0.00
2014-1-17,46,41,38,34,32,29,86,70,51,0.00,40.00,5,2,12,0.00
2014-1-18,43,39,35,37,32,22,90,78,55,0.00,40.00,12,5,27,0.00
2014-1-22,13,12,12,-3,-4,-6,57,51,45,0.00,40.00,10,5,21,0.00
2014-1-23,22,16,9,4,0,-4,66,53,42,0.00,40.00,13,6,23,0.00
2014-1-24,19,15,11,-1,-3,-5,62,49,36,0.00,40.00,15,8,26,0.00
2014-1-25,30,28,27,22,13,-100,85,64,57,0.00,40.00,13,8,19,0.00
2014-1-26,35,28,21,28,12,2,76,54,36,0.00,40.00,21,7,29,0.01
2014-1-27,45,37,27,31,23,3,75,58,34,0.00,40.00,15,7,31,0.00
2014-1-28,24,17,13,6,-4,-11,81,42,32,0.00,40.00,10,5,21,0.00
2014-1-29,20,15,12,8,1,-6,91,62,33,0.00,40.00,11,6,21,0.00
2014-1-30,26,11,-3,8,-2,-11,85,66,31,0.00,40.00,7,1,11,0.05
2014-1-31,36,22,8,24,16,3,93,81,53,0.00,40.00,5,1,11,0.00
2014-2-1,47,34,21,41,24,-100,100,77,38,0.00,40.00,11,3,18,0.00
2014-2-2,50,41,34,41,37,34,100,86,59,0.00,40.00,5,2,10,0.03
2014-2-3,45,38,33,38,35,32,100,92,73,0.00,40.00,13,4,21,0.62
2014-2-4,36,32,29,31,26,22,95,79,67,0.00,40.00,8,3,12,0.00
2014-2-5,41,38,34,41,37,29,100,96,70,0.00,40.00,14,7,26,0.55
2014-2-6,33,29,26,22,16,13,68,60,48,0.00,40.00,9,4,26,0.00
2014-2-7,37,30,23,24,22,17,96,75,50,0.00,40.00,10,2,15,0.00
2014-2-8,30,28,25,23,16,7,100,64,38,0.00,40.00,5,2,10,0.00
2014-2-9,34,27,21,28,18,11,100,75,45,0.00,40.00,8,2,16,0.00
2014-2-10,29,26,20,26,13,8,100,64,43,0.00,40.00,12,4,17,0.01
2014-2-11,29,21,13,8,6,4,80,57,35,0.00,40.00,11,3,17,0.00
2014-2-12,31,22,12,31,12,1,100,70,56,0.00,40.00,9,4,16,0.00
2014-2-13,41,36,31,41,36,30,100,100,98,0.00,40.00,26,7,32,0.00
2014-2-14,45,38,29,32,28,25,96,69,51,0.00,40.00,14,7,27,0.00
2014-2-15,46,35,30,44,30,-100,100,88,60,0.00,40.00,12,4,27,0.00
2014-2-16,31,28,24,19,13,8,65,55,44,0.00,40.00,13,8,22,0.00
2014-2-17,34,26,20,19,12,4,86,57,30,0.00,40.00,16,5,18,0.00
2014-2-18,51,38,29,38,31,24,100,79,47,0.00,40.00,14,4,22,0.27
2014-2-19,54,44,35,51,39,30,100,85,67,0.00,40.00,12,4,20,0.07
2014-2-20,52,43,29,44,31,22,100,67,32,0.00,40.00,11,4,17,0.00
2014-2-21,62,50,34,57,48,34,100,95,74,0.00,40.00,21,7,26,0.04
2014-2-22,55,42,30,35,29,-100,100,65,26,0.00,40.00,11,4,16,0.00
2014-2-23,61,49,41,36,33,29,80,57,34,0.00,40.00,10,5,15,0.00
2014-2-24,42,38,33,34,20,7,91,52,25,0.00,40.00,15,7,31,0.00
2014-2-25,31,28,23,27,20,10,98,76,42,0.00,40.00,9,4,16,0.00
2014-2-26,34,26,20,27,16,2,98,72,37,0.00,40.00,14,3,21,0.01
2014-2-27,39,26,13,26,10,-5,87,57,31,0.00,40.00,19,6,33,0.00
2014-2-28,23,17,10,7,-5,-14,77,41,21,0.00,40.00,14,5,24,0.00
2014-3-1,40,27,12,30,16,-100,93,70,46,0.00,40.00,5,2,13,0.00
2014-3-2,47,37,28,39,32,28,100,85,55,0.00,40.00,5,2,13,0.12
2014-3-3,35,21,10,35,17,3,100,88,64,0.00,40.00,5,1,12,0.07
2014-3-4,32,20,8,19,10,-2,97,70,48,0.00,40.00,4,0,9,0.28
2014-3-5,41,30,20,27,20,14,93,67,41,0.00,40.00,5,2,12,0.00
2014-3-6,33,29,24,22,17,11,77,62,46,0.00,40.00,12,5,21,0.00
2014-3-7,39,35,31,34,31,24,100,84,74,0.00,40.00,10,5,21,0.02
2014-3-8,53,42,33,37,34,31,100,77,52,0.00,40.00,10,5,18,0.00
2014-3-9,47,42,36,37,25,16,85,53,33,0.00,40.00,16,7,25,0.00
2014-3-10,51,42,31,34,31,24,80,65,48,0.00,40.00,10,4,16,0.00
2014-3-11,65,52,37,41,38,34,94,61,36,0.00,40.00,14,4,22,0.00
2014-3-12,61,52,45,53,45,36,100,79,55,0.00,40.00,16,6,36,0.24
2014-3-13,31,27,23,18,5,0,61,41,28,0.00,40.00,21,13,41,0.00
2014-3-14,43,31,20,31,15,1,81,55,31,0.00,40.00,14,6,23,0.00
2014-3-15,63,50,44,35,27,-100,63,46,25,0.00,40.00,13,8,41,0.00
2014-3-16,45,37,30,30,22,10,100,58,24,0.00,40.00,7,2,16,0.00
2014-3-17,29,27,25,27,21,-100,100,85,64,0.00,40.00,6,4,16,0.00
2014-3-18,40,34,27,30,25,18,80,68,56,0.00,40.00,16,5,26,0.28
2014-3-19,50,42,36,50,38,31,100,83,73,0.00,40.00,15,7,22,0.23
2014-3-20,56,47,42,44,33,-100,100,68,32,0.00,40.00,24,9,28,0.01
2014-3-21,55,43,31,38,29,23,97,60,32,0.00,40.00,16,6,26,0.00
2014-3-22,63,49,33,39,34,-100,100,62,35,0.00,40.00,15,5,20,0.00
2014-3-23,46,41,35,32,27,20,79,57,38,0.00,40.00,7,2,18,0.00
2014-3-24,36,30,22,15,7,2,71,40,29,0.00,40.00,12,5,22,0.00
2014-3-25,37,30,22,31,23,18,100,79,49,0.00,40.00,9,4,19,0.00
2014-3-26,35,32,28,29,17,4,100,61,27,0.00,40.00,20,9,36,0.25
2014-3-27,39,32,22,27,14,6,76,50,35,0.00,40.00,12,4,19,0.00
2014-3-28,59,52,39,48,45,31,90,76,66,0.00,40.00,12,8,20,0.00
2014-3-29,58,52,48,58,49,-100,100,97,85,0.00,40.00,11,4,26,1.29
2014-3-30,56,50,40,56,50,40,100,100,100,0.00,40.00,10,5,29,0.45
2014-3-31,58,44,37,37,34,32,99,72,41,0.00,40.00,15,7,36,0.01
2014-4-1,54,43,32,38,31,-100,98,67,47,0.00,40.00,9,4,17,0.00
2014-4-2,61,48,42,48,43,39,100,84,52,0.00,40.00,5,2,11,0.00
2014-4-3,60,52,46,49,42,30,100,71,41,0.00,40.00,7,3,19,0.00
2014-4-4,51,48,44,48,41,30,100,77,48,0.00,40.00,11,6,28,0.01
2014-4-5,58,50,45,47,37,28,100,67,35,0.00,40.00,17,8,30,0.00
2014-4-6,55,44,39,34,27,21,83,55,31,0.00,40.00,9,4,16,0.00
2014-4-7,50,40,32,48,38,32,100,91,77,0.00,40.00,6,2,17,0.01
2014-4-8,54,54,54,54,54,54,100,100,100,0.00,40.00,4,3,7,0.00
2014-4-9,63,58,45,36,30,25,69,37,23,0.00,40.00,11,5,24,0.00
2014-4-10,60,44,34,34,32,24,97,68,31,0.00,40.00,11,3,16,0.00
2014-4-11,75,68,59,51,47,44,70,49,33,0.00,40.00,11,6,14,0.00
2014-4-12,68,58,49,51,47,39,100,71,40,0.00,40.00,9,3,16,0.00
2014-4-13,77,64,52,58,54,48,99,72,50,0.00,40.00,16,7,26,0.00
2014-4-14,73,64,60,60,58,55,98,81,56,0.00,40.00,18,11,29,0.00
2014-4-15,64,58,45,63,58,45,100,99,91,0.00,40.00,20,12,35,0.50